Time;durP1;ratioP1;P1;durP2;ratioP2;P2;SDS_P1;SDS_P2;PMS_P1;PMS_P2;Temp;Humidity;BMP_temperature;BMP_pressure;BME280_temperature;BME280_humidity;BME280_pressure;Samples;Min_cycle;Max_cycle;Signal;HPM_P1;HPM_P2
2021/03/25 00:01:25;;;;;;;62.45;39.27;;;11.60;99.90;;;;;;1882237;76;21642;-69
2021/03/25 00:04:12;;;;;;;43.80;28.10;;;11.60;99.90;;;;;;1882361;75;21192;-69
2021/03/25 00:06:45;;;;;;;59.67;38.25;;;11.60;99.90;;;;;;1859974;75;21078;-70
2021/03/25 00:09:25;;;;;;;54.15;36.13;;;11.50;99.90;;;;;;1847046;75;21559;-71
2021/03/25 00:11:52;;;;;;;57.10;38.05;;;11.50;99.90;;;;;;1815438;77;21163;-70
2021/03/25 00:14:21;;;;;;;60.10;37.90;;;11.50;99.90;;;;;;1810632;77;21135;-70
2021/03/25 00:16:49;;;;;;;56.08;37.03;;;11.40;99.90;;;;;;1809947;77;22192;-70
2021/03/25 00:19:18;;;;;;;57.30;37.78;;;11.40;99.90;;;;;;1852982;75;21086;-70
2021/03/25 00:21:46;;;;;;;64.10;39.20;;;11.40;99.90;;;;;;1811997;77;21126;-69
2021/03/25 00:24:16;;;;;;;61.98;38.55;;;11.30;99.90;;;;;;1810690;77;21048;-70
2021/03/25 00:26:44;;;;;;;59.75;37.33;;;11.30;99.90;;;;;;1814107;77;21079;-70
2021/03/25 00:29:15;;;;;;;59.93;38.30;;;11.30;99.90;;;;;;1811374;77;21058;-70
2021/03/25 00:31:44;;;;;;;57.45;37.45;;;11.30;99.90;;;;;;1805632;77;21536;-70
2021/03/25 00:34:12;;;;;;;61.23;37.88;;;11.30;99.90;;;;;;1815606;77;21109;-70
2021/03/25 00:36:40;;;;;;;57.03;37.50;;;11.30;99.90;;;;;;1812629;77;21167;-70
2021/03/25 00:39:10;;;;;;;60.60;37.23;;;11.30;99.90;;;;;;1815058;77;21152;-70
2021/03/25 00:41:38;;;;;;;58.63;37.17;;;11.30;99.90;;;;;;1810370;77;21599;-70
2021/03/25 00:44:08;;;;;;;61.05;38.00;;;11.30;99.90;;;;;;1810280;77;21232;-70
2021/03/25 00:46:37;;;;;;;58.30;36.80;;;11.30;99.90;;;;;;1807469;77;21526;-70
2021/03/25 00:49:12;;;;;;;58.33;37.88;;;11.20;99.90;;;;;;1808396;77;21173;-70
2021/03/25 00:51:39;;;;;;;56.50;37.85;;;11.10;99.90;;;;;;1803789;77;21161;-70
2021/03/25 00:54:07;;;;;;;61.15;38.42;;;11.10;99.90;;;;;;1811475;77;21198;-70
2021/03/25 00:56:37;;;;;;;55.65;36.73;;;11.00;99.90;;;;;;1811464;77;21141;-70
2021/03/25 00:59:05;;;;;;;56.85;36.58;;;11.00;99.90;;;;;;1804539;77;22292;-69
2021/03/25 01:01:32;;;;;;;60.85;38.33;;;11.00;99.90;;;;;;1811389;77;21110;-70
2021/03/25 01:04:00;;;;;;;62.53;37.90;;;10.90;99.90;;;;;;1809569;77;21497;-69
2021/03/25 01:06:27;;;;;;;58.38;37.28;;;11.00;99.90;;;;;;1812600;77;21164;-69
2021/03/25 01:08:55;;;;;;;55.67;37.03;;;11.00;99.90;;;;;;1814285;77;21109;-69
2021/03/25 01:11:27;;;;;;;55.00;36.93;;;10.90;99.90;;;;;;1811041;77;21122;-69
2021/03/25 01:13:57;;;;;;;62.80;39.48;;;10.90;99.90;;;;;;1810835;77;21124;-69
2021/03/25 01:16:34;;;;;;;62.58;39.23;;;10.80;99.90;;;;;;1806314;77;21233;-70
2021/03/25 01:19:04;;;;;;;63.42;40.55;;;10.80;99.90;;;;;;1816440;77;21207;-70
2021/03/25 01:21:31;;;;;;;63.75;41.70;;;10.80;99.90;;;;;;1810608;77;21512;-70
2021/03/25 01:23:59;;;;;;;58.83;39.63;;;10.80;99.90;;;;;;1814049;77;21615;-70
2021/03/25 01:26:27;;;;;;;62.75;39.42;;;10.80;99.90;;;;;;1807499;77;21125;-70
2021/03/25 01:28:55;;;;;;;64.20;39.53;;;10.80;99.90;;;;;;1809489;77;21270;-70
2021/03/25 01:31:22;;;;;;;61.40;37.42;;;10.80;99.90;;;;;;1803744;77;21824;-70
2021/03/25 01:33:50;;;;;;;64.22;39.27;;;10.80;99.90;;;;;;1808017;77;21078;-70
2021/03/25 01:36:18;;;;;;;64.92;38.13;;;10.80;99.90;;;;;;1812600;77;21137;-70
2021/03/25 01:38:45;;;;;;;65.97;39.23;;;10.80;99.90;;;;;;1813290;77;21383;-70
2021/03/25 01:41:13;;;;;;;60.52;38.63;;;10.80;99.90;;;;;;1809470;77;21121;-70
2021/03/25 01:43:43;;;;;;;63.50;39.35;;;10.80;99.90;;;;;;1808829;77;21175;-70
2021/03/25 01:46:37;;;;;;;66.10;38.67;;;10.80;99.90;;;;;;1810401;77;21195;-69
2021/03/25 01:49:15;;;;;;;63.87;38.98;;;10.70;99.90;;;;;;1805562;77;21064;-70
2021/03/25 01:52:02;;;;;;;66.05;41.02;;;10.70;99.90;;;;;;1815347;77;21097;-69
2021/03/25 01:54:45;;;;;;;63.78;39.80;;;10.70;99.90;;;;;;1810234;77;21662;-70
2021/03/25 01:57:36;;;;;;;59.00;39.40;;;10.70;99.90;;;;;;1809045;77;21159;-70
2021/03/25 02:00:41;;;;;;;60.13;40.17;;;10.60;99.90;;;;;;1801654;77;21598;-69
2021/03/25 02:03:29;;;;;;;61.65;38.65;;;10.60;99.90;;;;;;1802700;77;21168;-72
2021/03/25 02:06:15;;;;;;;63.78;39.78;;;10.60;99.90;;;;;;1813972;77;21227;-69
2021/03/25 02:08:51;;;;;;;61.60;39.70;;;10.50;99.90;;;;;;1809722;77;21132;-70
2021/03/25 02:11:40;;;;;;;62.65;40.63;;;10.60;99.90;;;;;;1813446;77;21097;-70
2021/03/25 02:14:27;;;;;;;60.15;40.03;;;10.70;99.90;;;;;;1805852;77;22154;-70
2021/03/25 02:17:03;;;;;;;60.00;38.60;;;10.60;99.90;;;;;;1804905;77;21269;-70
2021/03/25 02:19:43;;;;;;;62.65;39.60;;;10.50;99.90;;;;;;1806838;77;21047;-70
2021/03/25 02:22:36;;;;;;;57.83;39.33;;;10.50;99.90;;;;;;1810571;77;21172;-69
2021/03/25 02:25:12;;;;;;;63.42;39.55;;;10.50;99.90;;;;;;1807505;77;21120;-70
2021/03/25 02:28:03;;;;;;;64.03;41.08;;;10.50;99.90;;;;;;1815468;77;21098;-70
2021/03/25 02:30:49;;;;;;;71.17;42.35;;;10.40;99.90;;;;;;1810634;77;21171;-70
2021/03/25 02:33:20;;;;;;;64.50;39.18;;;10.40;99.90;;;;;;1811548;77;21476;-69
2021/03/25 02:35:50;;;;;;;65.65;40.40;;;10.30;99.90;;;;;;1813576;77;21090;-69
2021/03/25 02:38:21;;;;;;;61.10;39.50;;;10.40;99.90;;;;;;1809928;79;21172;-70
2021/03/25 02:40:52;;;;;;;58.73;39.15;;;10.40;99.90;;;;;;1815470;77;21595;-70
2021/03/25 02:43:39;;;;;;;66.22;39.00;;;10.40;99.90;;;;;;1805365;77;21157;-70
2021/03/25 02:46:09;;;;;;;60.45;39.05;;;10.30;99.90;;;;;;1803676;77;21250;-70
2021/03/25 02:48:39;;;;;;;65.30;39.53;;;10.30;99.90;;;;;;1810679;77;21206;-69
2021/03/25 02:51:12;;;;;;;62.27;38.80;;;10.20;99.90;;;;;;1810560;77;21098;-70
2021/03/25 02:53:45;;;;;;;58.52;39.35;;;10.20;99.90;;;;;;1810139;77;21560;-69
2021/03/25 02:56:21;;;;;;;61.30;39.30;;;10.20;99.90;;;;;;1811262;77;21157;-70
2021/03/25 02:58:52;;;;;;;64.80;39.38;;;10.30;99.90;;;;;;1807068;77;21125;-70
2021/03/25 03:01:20;;;;;;;62.62;38.98;;;10.20;99.90;;;;;;1807810;77;21121;-70
2021/03/25 03:03:53;;;;;;;56.98;36.98;;;10.20;99.90;;;;;;1812581;77;21101;-70
2021/03/25 03:06:27;;;;;;;66.20;39.25;;;10.10;99.90;;;;;;1808570;77;21354;-70
2021/03/25 03:08:56;;;;;;;57.08;37.65;;;10.10;99.90;;;;;;1818088;77;21183;-70
2021/03/25 03:11:33;;;;;;;66.70;38.58;;;10.10;99.90;;;;;;1812382;77;21376;-70
2021/03/25 03:14:03;;;;;;;55.33;36.25;;;10.10;99.90;;;;;;1810401;77;21139;-70
2021/03/25 03:16:36;;;;;;;63.02;38.20;;;10.10;99.90;;;;;;1803351;77;21145;-71
2021/03/25 03:19:07;;;;;;;59.63;37.93;;;10.10;99.90;;;;;;1810563;77;21118;-70
2021/03/25 03:21:40;;;;;;;56.20;36.53;;;10.10;99.90;;;;;;1811566;77;21125;-71
2021/03/25 03:24:09;;;;;;;59.77;35.63;;;10.10;99.90;;;;;;1813129;77;21129;-70
2021/03/25 03:26:52;;;;;;;56.48;36.50;;;10.10;99.90;;;;;;1807861;79;21154;-70
2021/03/25 03:29:20;;;;;;;;;;;10.00;99.90;;;;;;1811524;78;21717;-70
2021/03/25 03:31:51;;;;;;;65.97;36.68;;;10.00;99.90;;;;;;1809088;79;20201;-70
2021/03/25 03:34:27;;;;;;;59.80;35.90;;;9.90;99.90;;;;;;1795181;79;21135;-70
2021/03/25 03:36:58;;;;;;;53.23;33.63;;;10.00;99.90;;;;;;1856139;75;21548;-70
2021/03/25 03:39:28;;;;;;;59.05;36.03;;;10.00;99.90;;;;;;1852786;75;21129;-70
2021/03/25 03:41:58;;;;;;;58.00;36.10;;;10.00;99.90;;;;;;1816644;77;21231;-69
2021/03/25 03:44:29;;;;;;;58.48;36.58;;;10.00;99.90;;;;;;1810191;77;21200;-70
2021/03/25 03:46:59;;;;;;;61.18;37.65;;;10.00;99.90;;;;;;1844862;75;21210;-70
2021/03/25 03:49:35;;;;;;;63.63;40.83;;;10.00;99.90;;;;;;1811224;77;21130;-69
2021/03/25 03:52:06;;;;;;;62.38;40.45;;;10.00;99.90;;;;;;1807381;77;21181;-70
2021/03/25 03:54:34;;;;;;;65.87;41.23;;;10.10;99.90;;;;;;1806096;77;21127;-70
2021/03/25 03:57:24;;;;;;;62.83;39.88;;;10.10;99.90;;;;;;1813317;77;21201;-70
2021/03/25 04:00:16;;;;;;;62.40;36.77;;;10.20;99.90;;;;;;1851349;75;21105;-69
2021/03/25 04:03:05;;;;;;;58.78;38.42;;;10.10;99.90;;;;;;1850459;75;21136;-70
2021/03/25 04:05:35;;;;;;;67.55;39.05;;;10.10;99.90;;;;;;1809490;77;21204;-71
2021/03/25 04:08:06;;;;;;;61.58;40.17;;;10.00;99.90;;;;;;1851662;75;21497;-70
2021/03/25 04:10:42;;;;;;;66.90;41.53;;;10.10;99.90;;;;;;1851584;75;21112;-69
2021/03/25 04:13:16;;;;;;;60.63;39.98;;;10.10;99.90;;;;;;1802046;73;21148;-69
2021/03/25 04:15:46;;;;;;;60.55;39.25;;;10.20;99.90;;;;;;1808383;78;21106;-70
2021/03/25 04:18:35;;;;;;;57.55;38.55;;;10.20;99.90;;;;;;1832069;77;21247;-70
2021/03/25 04:21:06;;;;;;;60.98;39.50;;;10.20;99.90;;;;;;1723032;81;21575;-72
2021/03/25 04:23:35;;;;;;;64.32;39.30;;;10.10;99.90;;;;;;1804778;77;21309;-71
2021/03/25 04:26:06;;;;;;;58.70;37.80;;;10.10;99.90;;;;;;1862447;73;21111;-71
2021/03/25 04:28:39;;;;;;;57.85;37.45;;;10.20;99.90;;;;;;1923411;73;21172;-72
2021/03/25 04:31:08;;;;;;;66.55;40.08;;;10.10;99.90;;;;;;1924998;73;21454;-72
2021/03/25 04:33:38;;;;;;;65.37;39.67;;;10.10;99.90;;;;;;1922632;73;21449;-72
2021/03/25 04:36:09;;;;;;;63.92;39.50;;;10.10;99.90;;;;;;1923893;73;21085;-71
2021/03/25 04:38:39;;;;;;;72.65;40.70;;;10.10;99.90;;;;;;1923727;73;21187;-71
2021/03/25 04:41:07;;;;;;;60.95;39.53;;;10.20;99.90;;;;;;1930201;73;21575;-72
2021/03/25 04:43:35;;;;;;;69.25;39.65;;;10.20;99.90;;;;;;1923888;73;21113;-72
2021/03/25 04:46:29;;;;;;;65.05;40.05;;;10.30;99.90;;;;;;1914858;73;21133;-72
2021/03/25 04:49:02;;;;;;;60.92;38.38;;;10.30;99.90;;;;;;1919029;73;21521;-72
2021/03/25 04:51:30;;;;;;;60.33;39.13;;;10.30;99.90;;;;;;1918264;73;21697;-72
2021/03/25 04:54:28;;;;;;;59.67;39.08;;;10.30;99.90;;;;;;1926218;73;21699;-72
2021/03/25 04:56:59;;;;;;;64.15;38.20;;;10.40;99.90;;;;;;1928233;73;21099;-71
2021/03/25 04:59:26;;;;;;;62.27;37.48;;;10.30;99.90;;;;;;1924546;73;21101;-71
2021/03/25 05:01:54;;;;;;;62.95;38.40;;;10.30;99.90;;;;;;1923467;73;21121;-71
2021/03/25 05:04:22;;;;;;;61.88;38.02;;;10.30;99.90;;;;;;1917565;73;21712;-71
2021/03/25 05:06:56;;;;;;;58.85;37.93;;;10.30;99.90;;;;;;1925268;73;21625;-73
2021/03/25 05:09:25;;;;;;;67.85;39.78;;;10.40;99.90;;;;;;1933365;73;21691;-72
2021/03/25 05:11:54;;;;;;;62.48;38.13;;;10.40;99.90;;;;;;1927973;73;22449;-72
2021/03/25 05:14:27;;;;;;;59.20;36.90;;;10.40;99.90;;;;;;1925510;73;21086;-72
2021/03/25 05:17:13;;;;;;;59.03;38.65;;;10.40;99.90;;;;;;1922369;73;21139;-72
2021/03/25 05:19:43;;;;;;;60.85;37.95;;;10.40;99.90;;;;;;1921299;73;21038;-72
2021/03/25 05:22:20;;;;;;;63.45;38.78;;;10.40;99.90;;;;;;1924701;73;21085;-72
2021/03/25 05:24:50;;;;;;;63.70;40.33;;;10.40;99.90;;;;;;1892902;73;21045;-72
2021/03/25 05:27:42;;;;;;;68.57;40.08;;;10.50;99.90;;;;;;1913175;73;21091;-71
2021/03/25 05:30:13;;;;;;;57.80;38.58;;;10.50;99.90;;;;;;1924526;73;21004;-72
2021/03/25 05:32:43;;;;;;;62.85;38.88;;;10.50;99.90;;;;;;1926484;73;21113;-72
2021/03/25 05:35:14;;;;;;;59.67;37.93;;;10.50;99.90;;;;;;1923643;73;21554;-72
2021/03/25 05:37:44;;;;;;;63.33;38.23;;;10.50;99.90;;;;;;1920449;73;21096;-72
2021/03/25 05:40:18;;;;;;;60.67;37.40;;;10.50;99.90;;;;;;1922292;73;21002;-71
2021/03/25 05:43:11;;;;;;;63.48;37.98;;;10.50;99.90;;;;;;1918249;73;21117;-71
2021/03/25 05:45:44;;;;;;;61.58;38.80;;;10.50;99.90;;;;;;1924237;73;21129;-71
2021/03/25 05:48:30;;;;;;;60.17;37.28;;;10.40;99.90;;;;;;1923703;73;21437;-71
2021/03/25 05:51:07;;;;;;;56.25;37.00;;;10.40;99.90;;;;;;1914283;73;21490;-71
2021/03/25 05:53:44;;;;;;;57.73;35.75;;;10.50;99.90;;;;;;1907897;73;21129;-70
2021/03/25 05:56:20;;;;;;;55.85;35.78;;;10.40;99.90;;;;;;1914854;73;21077;-70
2021/03/25 05:59:02;;;;;;;61.33;36.65;;;10.30;99.90;;;;;;1912282;73;21214;-69
2021/03/25 06:01:33;;;;;;;;;;;10.40;99.90;;;;;;1924207;73;21019;-69
2021/03/25 06:04:04;;;;;;;62.23;36.95;;;10.40;99.90;;;;;;1926806;73;20180;-68
2021/03/25 06:07:10;;;;;;;57.25;37.25;;;10.30;99.90;;;;;;1924848;73;21135;-69
2021/03/25 06:09:43;;;;;;;58.33;37.45;;;10.30;99.90;;;;;;1921596;73;21101;-69
2021/03/25 06:12:19;;;;;;;62.75;37.45;;;10.30;99.90;;;;;;1919515;73;21073;-68
2021/03/25 06:15:09;;;;;;;61.90;36.83;;;10.30;99.90;;;;;;1917761;73;21136;-71
2021/03/25 06:17:56;;;;;;;56.75;36.98;;;10.40;99.90;;;;;;1928232;73;21155;-69
2021/03/25 06:20:42;;;;;;;61.45;38.83;;;10.40;99.90;;;;;;1925730;73;21105;-69
2021/03/25 06:23:18;;;;;;;64.82;38.90;;;10.30;99.90;;;;;;1921636;73;21071;-80
2021/03/25 06:25:58;;;;;;;68.95;39.35;;;10.40;99.90;;;;;;1930773;73;21085;-70
2021/03/25 06:28:43;;;;;;;76.92;41.18;;;10.40;99.90;;;;;;1919721;73;21183;-69
2021/03/25 06:31:30;;;;;;;76.00;41.95;;;10.40;99.90;;;;;;1930060;73;21030;-69
2021/03/25 06:34:03;;;;;;;81.92;42.00;;;10.40;99.90;;;;;;1922444;73;21113;-69
2021/03/25 06:36:37;;;;;;;69.77;43.00;;;10.40;99.90;;;;;;1927586;73;22191;-71
2021/03/25 06:39:05;;;;;;;60.70;39.55;;;10.50;99.90;;;;;;1888869;73;21202;-71
2021/03/25 06:41:38;;;;;;;76.62;50.23;;;10.60;99.90;;;;;;1928274;73;21609;-71
2021/03/25 06:44:12;;;;;;;64.92;42.43;;;10.60;99.90;;;;;;1924108;73;21097;-71
2021/03/25 06:46:42;;;;;;;73.92;42.43;;;10.70;99.90;;;;;;1921062;73;21144;-71
2021/03/25 06:49:18;;;;;;;66.45;42.10;;;10.80;99.90;;;;;;1920484;73;21212;-70
2021/03/25 06:51:45;;;;;;;63.20;40.60;;;10.80;99.90;;;;;;1923297;73;21442;-69
2021/03/25 06:54:26;;;;;;;66.72;41.88;;;10.80;99.90;;;;;;1933436;73;21153;-69
2021/03/25 06:56:57;;;;;;;66.33;41.70;;;10.90;99.90;;;;;;1927151;73;21090;-69
2021/03/25 06:59:39;;;;;;;71.50;41.88;;;11.00;99.90;;;;;;1930086;73;21207;-69
2021/03/25 07:02:15;;;;;;;73.62;41.98;;;11.00;99.90;;;;;;1931928;73;21162;-68
2021/03/25 07:04:46;;;;;;;63.05;41.15;;;11.10;99.90;;;;;;1935999;73;21062;-69
2021/03/25 07:07:16;;;;;;;68.72;41.60;;;11.10;99.90;;;;;;1925357;73;21175;-69
2021/03/25 07:09:44;;;;;;;65.40;40.43;;;11.20;99.90;;;;;;1929165;73;21759;-71
2021/03/25 07:12:20;;;;;;;67.65;40.10;;;11.20;99.90;;;;;;1934991;73;21078;-71
2021/03/25 07:14:49;;;;;;;71.25;41.37;;;11.20;99.90;;;;;;1912178;73;22519;-69
2021/03/25 07:17:19;;;;;;;67.70;40.50;;;11.30;99.90;;;;;;1935657;73;21081;-70
2021/03/25 07:19:50;;;;;;;63.65;39.30;;;11.30;99.90;;;;;;1918518;73;21155;-69
2021/03/25 07:22:21;;;;;;;63.23;40.85;;;11.40;99.90;;;;;;1919576;73;21097;-69
2021/03/25 07:24:50;;;;;;;69.80;40.65;;;11.40;99.90;;;;;;1926749;73;21090;-69
2021/03/25 07:27:23;;;;;;;68.97;41.23;;;11.50;99.90;;;;;;1915848;73;21179;-69
2021/03/25 07:30:03;;;;;;;64.05;39.75;;;11.60;99.90;;;;;;1927446;73;21054;-69
2021/03/25 07:32:49;;;;;;;63.10;38.90;;;11.60;99.90;;;;;;1920075;73;21151;-68
2021/03/25 07:35:32;;;;;;;66.02;39.78;;;11.70;99.90;;;;;;1919955;73;21107;-68
2021/03/25 07:38:03;;;;;;;62.53;38.38;;;11.70;99.90;;;;;;1915813;73;21635;-68
2021/03/25 07:40:37;;;;;;;66.50;39.35;;;11.70;99.90;;;;;;1920982;73;21680;-68
2021/03/25 07:43:20;;;;;;;58.98;39.25;;;11.70;99.90;;;;;;1932993;73;21756;-68
2021/03/25 07:45:47;;;;;;;62.10;38.98;;;11.80;99.90;;;;;;1923207;73;21066;-68
2021/03/25 07:48:21;;;;;;;61.18;38.00;;;11.80;99.90;;;;;;1918058;73;21555;-68
2021/03/25 07:50:51;;;;;;;65.83;36.73;;;11.90;99.90;;;;;;1924871;73;21121;-69
2021/03/25 07:53:25;;;;;;;55.73;35.83;;;11.90;99.90;;;;;;1920793;73;21191;-66
2021/03/25 07:56:11;;;;;;;59.35;36.98;;;12.00;99.90;;;;;;1923339;73;21775;-68
2021/03/25 07:58:44;;;;;;;59.05;36.45;;;12.00;99.90;;;;;;1925676;73;21162;-69
2021/03/25 08:01:17;;;;;;;65.12;38.78;;;12.00;99.90;;;;;;1916264;73;21167;-67
2021/03/25 08:03:53;;;;;;;67.67;39.38;;;12.10;99.90;;;;;;1922757;73;21173;-67
2021/03/25 08:06:36;;;;;;;71.67;38.23;;;12.10;99.90;;;;;;1916908;73;21084;-67
2021/03/25 08:09:04;;;;;;;;;;;12.20;99.90;;;;;;1927629;73;21105;-66
2021/03/25 08:11:34;;;;;;;64.65;36.75;;;12.30;99.90;;;;;;1919794;73;20256;-66
2021/03/25 08:14:16;;;;;;;59.67;37.03;;;12.30;99.90;;;;;;1920260;73;21200;-66
2021/03/25 08:16:46;;;;;;;65.90;39.27;;;12.40;99.90;;;;;;1931146;73;21089;-67
2021/03/25 08:19:20;;;;;;;65.85;40.85;;;12.40;99.90;;;;;;1931506;73;21096;-66
2021/03/25 08:21:52;;;;;;;;;;;12.40;99.90;;;;;;1922990;73;21501;-68
2021/03/25 08:24:29;;;;;;;63.95;39.95;;;12.40;99.90;;;;;;1879659;73;20217;-68
2021/03/25 08:27:16;;;;;;;64.00;39.83;;;12.50;99.90;;;;;;1921897;73;21099;-67
2021/03/25 08:30:02;;;;;;;58.40;35.98;;;12.50;99.90;;;;;;1922101;73;21061;-67
2021/03/25 08:32:35;;;;;;;57.83;37.40;;;12.50;99.90;;;;;;1918283;73;21030;-67
2021/03/25 08:35:28;;;;;;;62.23;37.67;;;12.60;99.90;;;;;;1835911;73;21035;-68
2021/03/25 08:38:28;;;;;;;63.20;38.38;;;12.60;99.90;;;;;;1921274;73;21496;-67
2021/03/25 08:41:11;;;;;;;57.53;34.98;;;12.70;99.90;;;;;;1917472;73;21159;-67
2021/03/25 08:43:50;;;;;;;57.15;35.58;;;12.70;99.90;;;;;;1909569;73;21233;-67
2021/03/25 08:46:35;;;;;;;56.05;33.90;;;12.70;99.90;;;;;;1920096;73;21543;-68
2021/03/25 08:49:06;;;;;;;62.25;35.08;;;12.80;99.90;;;;;;1927860;73;21116;-66
2021/03/25 08:51:42;;;;;;;61.95;33.73;;;13.00;99.90;;;;;;1922775;73;21019;-67
2021/03/25 08:54:24;;;;;;;60.65;35.45;;;13.00;99.90;;;;;;1926609;73;21121;-66
2021/03/25 08:56:58;;;;;;;59.33;33.30;;;13.10;99.90;;;;;;1917798;73;21504;-66
2021/03/25 08:59:32;;;;;;;58.33;33.13;;;13.20;99.90;;;;;;1914863;73;21007;-69
2021/03/25 09:02:17;;;;;;;52.25;32.88;;;13.20;99.90;;;;;;1909500;73;21175;-68
2021/03/25 09:04:53;;;;;;;47.48;28.05;;;13.30;99.90;;;;;;1923689;73;21162;-71
2021/03/25 09:07:23;;;;;;;47.65;26.37;;;13.10;99.90;;;;;;1921929;73;21629;-68
2021/03/25 09:09:53;;;;;;;51.13;29.07;;;13.10;99.90;;;;;;1918808;73;21097;-71
2021/03/25 09:12:24;;;;;;;47.20;27.25;;;13.30;99.90;;;;;;1924872;73;21326;-72
2021/03/25 09:14:52;;;;;;;47.33;27.62;;;13.30;99.90;;;;;;1917195;73;21313;-68
2021/03/25 09:17:22;;;;;;;44.90;27.42;;;13.30;99.90;;;;;;1923087;73;21564;-68
2021/03/25 09:19:53;;;;;;;44.58;27.00;;;13.40;99.90;;;;;;1920285;73;21092;-68
2021/03/25 09:22:43;;;;;;;51.85;29.60;;;13.40;99.90;;;;;;1922457;73;21141;-71
2021/03/25 09:25:29;;;;;;;47.33;28.90;;;13.60;99.90;;;;;;1923778;73;21148;-70
2021/03/25 09:27:58;;;;;;;51.80;30.12;;;13.60;99.90;;;;;;1915075;73;21199;-70
2021/03/25 09:30:41;;;;;;;47.98;28.90;;;13.70;99.90;;;;;;1921294;73;21094;-70
2021/03/25 09:33:45;;;;;;;41.23;26.87;;;13.90;99.90;;;;;;1925583;73;21556;-70
2021/03/25 09:36:22;;;;;;;37.60;22.25;;;13.80;99.90;;;;;;1926181;73;21097;-69
2021/03/25 09:39:05;;;;;;;35.43;22.52;;;13.90;99.90;;;;;;1916935;73;21047;-68
2021/03/25 09:41:33;;;;;;;41.50;23.35;;;13.80;99.90;;;;;;1915640;73;21529;-68
2021/03/25 09:44:17;;;;;;;41.65;23.40;;;13.90;99.90;;;;;;1914605;73;21145;-69
2021/03/25 09:46:47;;;;;;;33.88;22.32;;;14.10;99.90;;;;;;1920322;73;21560;-70
2021/03/25 09:49:20;;;;;;;35.13;20.92;;;14.20;99.90;;;;;;1929052;73;21661;-71
2021/03/25 09:51:51;;;;;;;43.48;22.90;;;14.30;99.90;;;;;;1919843;73;21116;-72
2021/03/25 09:54:24;;;;;;;36.20;22.25;;;14.40;99.90;;;;;;1918675;73;21433;-71
2021/03/25 09:57:18;;;;;;;34.88;21.15;;;14.60;99.90;;;;;;1929412;73;21077;-71
2021/03/25 09:59:52;;;;;;;33.08;19.85;;;14.70;99.90;;;;;;1918894;73;21140;-68
2021/03/25 10:02:48;;;;;;;33.25;17.98;;;14.90;99.90;;;;;;1909671;73;21567;-69
2021/03/25 10:05:37;;;;;;;33.48;19.30;;;15.00;99.90;;;;;;1912708;73;21222;-69
2021/03/25 10:08:19;;;;;;;36.25;20.62;;;15.00;99.90;;;;;;1915231;73;21129;-68
2021/03/25 10:10:58;;;;;;;32.90;18.57;;;15.00;99.90;;;;;;1926376;73;21696;-68
2021/03/25 10:13:46;;;;;;;33.55;18.62;;;15.20;99.50;;;;;;1920204;72;21145;-68
2021/03/25 10:16:36;;;;;;;27.98;17.65;;;15.20;99.20;;;;;;1885943;74;21594;-68
2021/03/25 10:19:10;;;;;;;31.95;17.50;;;15.30;99.90;;;;;;1888020;74;21174;-68
2021/03/25 10:21:46;;;;;;;31.07;17.45;;;15.30;98.80;;;;;;1887174;74;21156;-68
2021/03/25 10:24:20;;;;;;;27.70;17.23;;;15.40;99.60;;;;;;1884208;74;21041;-68
2021/03/25 10:26:48;;;;;;;31.07;17.10;;;15.50;98.60;;;;;;1886402;74;21032;-68
2021/03/25 10:29:19;;;;;;;31.20;15.03;;;15.70;98.30;;;;;;1884814;74;21125;-68
2021/03/25 10:31:50;;;;;;;29.20;15.93;;;15.70;97.70;;;;;;1893196;74;21185;-68
2021/03/25 10:34:26;;;;;;;25.65;14.07;;;15.80;98.40;;;;;;1890056;74;21173;-69
2021/03/25 10:37:00;;;;;;;23.15;14.53;;;15.90;97.60;;;;;;1885134;74;21159;-69
2021/03/25 10:39:33;;;;;;;24.87;12.68;;;16.00;97.50;;;;;;1888598;74;21114;-69
2021/03/25 10:42:27;;;;;;;19.17;11.65;;;16.00;97.60;;;;;;1888437;74;21560;-68
2021/03/25 10:44:56;;;;;;;17.27;9.80;;;16.00;96.30;;;;;;1882935;74;21237;-69
2021/03/25 10:47:31;;;;;;;15.55;9.80;;;16.00;95.90;;;;;;1887054;74;21532;-69
2021/03/25 10:50:02;;;;;;;19.32;11.15;;;16.00;95.90;;;;;;1885308;74;21099;-69
2021/03/25 10:52:45;;;;;;;20.70;11.90;;;16.00;96.20;;;;;;1883398;74;21534;-69
2021/03/25 10:55:32;;;;;;;23.50;12.73;;;16.20;96.30;;;;;;1883633;74;21205;-69
2021/03/25 10:58:02;;;;;;;22.30;13.05;;;16.20;95.90;;;;;;1890728;74;21107;-69
2021/03/25 11:00:33;;;;;;;22.58;12.75;;;16.30;96.80;;;;;;1883601;74;21235;-69
2021/03/25 11:03:02;;;;;;;19.55;13.08;;;16.50;96.40;;;;;;1895045;74;21050;-69
2021/03/25 11:05:31;;;;;;;22.98;13.70;;;16.50;95.60;;;;;;1884962;73;21215;-68
2021/03/25 11:08:03;;;;;;;20.02;12.05;;;16.50;96.00;;;;;;1886055;74;21024;-68
2021/03/25 11:10:36;;;;;;;18.77;11.80;;;16.60;95.50;;;;;;1893664;74;21129;-68
2021/03/25 11:13:09;;;;;;;20.95;11.50;;;16.60;95.30;;;;;;1877438;74;21173;-69
2021/03/25 11:15:42;;;;;;;15.23;10.35;;;16.70;94.70;;;;;;1885447;74;21578;-68
2021/03/25 11:18:19;;;;;;;16.87;9.38;;;16.80;95.30;;;;;;1887059;74;21131;-69
2021/03/25 11:20:47;;;;;;;18.95;9.78;;;17.00;94.30;;;;;;1883578;74;21203;-70
2021/03/25 11:23:18;;;;;;;16.35;9.00;;;17.00;93.30;;;;;;1879743;74;21157;-70
2021/03/25 11:25:46;;;;;;;14.90;9.60;;;17.00;94.00;;;;;;1876596;74;21088;-72
2021/03/25 11:28:18;;;;;;;14.58;9.20;;;17.00;94.10;;;;;;1882686;74;21707;-70
2021/03/25 11:30:58;;;;;;;15.25;8.28;;;17.00;94.00;;;;;;1887226;74;21644;-68
2021/03/25 11:33:34;;;;;;;14.50;7.40;;;16.90;93.20;;;;;;1870110;74;21548;-68
2021/03/25 11:36:03;;;;;;;14.50;7.20;;;16.90;93.00;;;;;;1880220;74;21459;-68
2021/03/25 11:38:43;;;;;;;12.65;6.78;;;16.50;93.10;;;;;;1881060;74;21123;-68
2021/03/25 11:41:15;;;;;;;14.80;6.95;;;16.30;93.20;;;;;;1886953;74;21180;-68
2021/03/25 11:43:57;;;;;;;19.87;8.95;;;16.00;93.40;;;;;;1868069;74;21135;-68
2021/03/25 11:46:33;;;;;;;17.45;8.90;;;16.10;93.90;;;;;;1891871;74;21142;-67
2021/03/25 11:49:09;;;;;;;16.67;9.30;;;16.00;93.70;;;;;;1888081;74;21171;-66
2021/03/25 11:51:40;;;;;;;21.12;10.58;;;15.40;94.20;;;;;;1882048;74;21133;-67
2021/03/25 11:54:29;;;;;;;19.48;10.78;;;15.20;94.80;;;;;;1886466;74;21140;-67
2021/03/25 11:56:59;;;;;;;16.62;10.43;;;15.20;95.00;;;;;;1883748;74;21107;-67
2021/03/25 11:59:29;;;;;;;19.90;11.40;;;15.40;95.20;;;;;;1883537;74;21189;-69
2021/03/25 12:02:08;;;;;;;17.35;10.68;;;15.40;94.90;;;;;;1892310;74;21347;-70
2021/03/25 12:04:37;;;;;;;20.95;10.75;;;15.40;95.00;;;;;;1888440;74;21136;-70
2021/03/25 12:10:03;;;;;;;19.48;10.95;;;15.30;95.30;;;;;;1960226;71;21191;-69
2021/03/25 12:12:31;;;;;;;18.30;10.68;;;15.20;95.30;;;;;;1962500;71;21162;-70
2021/03/25 12:14:58;;;;;;;18.52;11.12;;;15.30;95.20;;;;;;1882096;74;21270;-71
2021/03/25 12:17:27;;;;;;;19.27;10.88;;;15.20;95.20;;;;;;1917523;73;21152;-69
2021/03/25 12:19:54;;;;;;;22.60;10.05;;;15.30;95.20;;;;;;1886177;74;21174;-69
2021/03/25 12:22:27;;;;;;;17.42;10.32;;;15.50;94.50;;;;;;1909106;73;21151;-70
2021/03/25 12:24:55;;;;;;;15.72;7.78;;;15.60;94.80;;;;;;1912237;73;21164;-68
2021/03/25 12:27:25;;;;;;;14.55;8.13;;;15.60;93.80;;;;;;1911940;73;21081;-70
2021/03/25 12:29:54;;;;;;;12.93;7.22;;;15.60;93.60;;;;;;1912817;73;21082;-70
2021/03/25 12:32:25;;;;;;;14.07;7.53;;;15.40;93.60;;;;;;1910558;73;21189;-69
2021/03/25 12:34:52;;;;;;;14.87;6.83;;;15.30;94.10;;;;;;1912355;73;21218;-70
2021/03/25 12:37:24;;;;;;;14.73;7.17;;;15.40;93.90;;;;;;1912731;73;21083;-70
2021/03/25 12:39:53;;;;;;;14.47;7.87;;;15.40;93.70;;;;;;1910542;73;21262;-70
2021/03/25 12:42:21;;;;;;;11.00;6.83;;;15.50;93.60;;;;;;1907397;73;21005;-70
2021/03/25 12:44:48;;;;;;;15.32;8.15;;;15.50;93.80;;;;;;1912757;73;21109;-70
2021/03/25 12:47:16;;;;;;;19.00;8.30;;;15.60;94.60;;;;;;1908087;73;21201;-70
2021/03/25 12:49:43;;;;;;;17.07;8.08;;;15.70;94.20;;;;;;1910927;73;21078;-70
2021/03/25 12:52:11;;;;;;;12.55;7.50;;;15.70;93.80;;;;;;1913242;73;21058;-70
2021/03/25 12:54:38;;;;;;;14.23;7.85;;;15.70;93.90;;;;;;1913168;73;21640;-70
2021/03/25 12:57:09;;;;;;;15.55;10.18;;;15.70;94.00;;;;;;1909907;73;21126;-71
2021/03/25 12:59:37;;;;;;;15.40;9.25;;;15.50;94.40;;;;;;1914876;73;21118;-70
2021/03/25 13:02:05;;;;;;;23.87;11.15;;;15.40;94.70;;;;;;1905079;73;21095;-70
2021/03/25 13:04:32;;;;;;;23.42;10.38;;;15.30;94.70;;;;;;1914211;73;21167;-70
2021/03/25 13:07:00;;;;;;;21.15;11.22;;;15.20;95.00;;;;;;1908186;73;21688;-71
2021/03/25 13:09:27;;;;;;;20.43;11.45;;;15.30;95.10;;;;;;1911876;73;21042;-70